Crater Lake National Park, OR

11:25 PM PST on March 01, 2015 (GMT -0800)
RAWS CHILOQUIN OR US | Change Station
CLOSE
Current Station
Personal Weather Station
Location: Sprague River, OR
Elevation: 4419 ft
Nearby Weather Stations

Elev 4419 ft 42.58 °N, 121.89 °W | Updated 29 minutes ago

Mostly Cloudy
Mostly Cloudy
32 °F
Feels Like 32 °F
N
2
Wind Variable Wind from South
Gusts 6.0 mph

Today
High -- | Low -- °F
--% Chance of Precip.
Yesterday
High -- | Low -- °F
Precip. -- in
6:43 AM 5:56 PM
Waxing Gibbous, 90% visible
Pressure 29.91 in
Visibility 10.0 miles
Clouds Clear
Windchill 32 °F
Dew Point 26 °F
Humidity 79%
Rainfall 0.00 in
Snow Depth Not available.
UV 0 out of 12
Pollen 4.70 out of 12
Air Quality Not available.
Flu Activity Not available.
METAR KLMT 020653Z AUTO 14004KT 10SM CLR M03/M06 A2987 RMK AO2 SLP126 T10281061

More Conditions Fewer Conditions

Pressure 29.91 in
Visibility 10.0 miles
Clouds Clear
Windchill 32 °F
Dew Point 26 °F
Humidity 79%
Rainfall 0.00 in
Snow Depth Not available.
UV 0 out of 12
Pollen 4.70 out of 12
Air Quality Not available.
Flu Activity Not available.
METAR KLMT 020653Z AUTO 14004KT 10SM CLR M03/M06 A2987 RMK AO2 SLP126 T10281061

More Conditions Fewer Conditions

10-Day Weather Forecast

Almanac

Astronomy

Mar. 01, 2015 Rise Set
Actual Time
Civil Twilight
Nautical Twilight
Astronomical Twilight
Moon
Length of Visible Light
Length of Day
Tomorrow will be .
, % of the Moon is Illuminated

Today's Extremes

State Highs State Lows

Community

WunderPhotos

Upload Photos

1,801,739 photos uploaded!

WunderBlogs® & News

Nearby

Air Quality

  Air Quality AQ Index Pollutant
Not available.

Snow Depth

Station Depth Elevation

Earthquake Activity

City Distance Mag. Time & Date
Minimum magnitude displayed is 2.5.

Coastal Water Temperatures

Place Temperature

Nearby Weather Stations